createdAt,value
2022-10-23T00:01:14.785Z,12.10
2022-10-23T00:03:41.970Z,11.82
2022-10-23T00:06:09.721Z,12.30
2022-10-23T00:08:36.862Z,13.68
2022-10-23T00:11:11.853Z,13.13
2022-10-23T00:13:39.555Z,13.25
2022-10-23T00:16:07.542Z,14.45
2022-10-23T00:18:34.930Z,13.88
2022-10-23T00:21:02.621Z,14.02
2022-10-23T00:23:29.640Z,12.93
2022-10-23T00:25:56.671Z,13.68
2022-10-23T00:28:23.764Z,12.82
2022-10-23T00:30:50.813Z,13.52
2022-10-23T00:33:17.799Z,12.23
2022-10-23T00:35:44.949Z,12.65
2022-10-23T00:38:12.491Z,12.57
2022-10-23T00:40:42.355Z,11.80
2022-10-23T00:43:21.274Z,11.70
2022-10-23T00:45:48.422Z,11.90
2022-10-23T00:48:16.245Z,12.75
2022-10-23T00:50:43.532Z,11.15
2022-10-23T00:53:13.111Z,11.38
2022-10-23T00:55:46.008Z,11.48
2022-10-23T00:58:18.987Z,12.00
2022-10-23T01:00:49.839Z,11.73
2022-10-23T01:03:21.762Z,10.85
2022-10-23T01:06:03.204Z,11.45
2022-10-23T01:08:41.728Z,11.07
2022-10-23T01:11:15.293Z,11.63
2022-10-23T01:13:46.194Z,11.32
2022-10-23T01:18:59.186Z,10.98
2022-10-23T01:21:37.734Z,11.75
2022-10-23T01:24:29.809Z,11.07
2022-10-23T01:27:17.972Z,11.10
2022-10-23T01:29:59.395Z,11.93
2022-10-23T01:32:43.276Z,11.57
2022-10-23T01:35:19.248Z,11.23
2022-10-23T01:38:02.535Z,10.43
2022-10-23T01:40:57.683Z,12.50
2022-10-23T01:43:29.242Z,11.32
2022-10-23T01:46:04.452Z,10.63
2022-10-23T01:48:34.290Z,11.75
2022-10-23T01:51:06.482Z,11.15
2022-10-23T01:53:38.585Z,10.90
2022-10-23T01:56:13.316Z,10.55
2022-10-23T01:58:44.450Z,10.45
2022-10-23T02:01:13.725Z,10.88
2022-10-23T02:03:48.659Z,11.10
2022-10-23T02:06:15.958Z,10.98
2022-10-23T02:08:43.219Z,10.52
2022-10-23T02:11:14.126Z,12.07
2022-10-23T02:14:02.475Z,11.45
2022-10-23T02:16:45.395Z,10.38
2022-10-23T02:19:27.192Z,11.23
2022-10-23T02:22:07.199Z,11.15
2022-10-23T02:25:07.207Z,11.23
2022-10-23T02:27:56.327Z,11.60
2022-10-23T02:30:31.025Z,12.45
2022-10-23T02:33:09.686Z,11.02
2022-10-23T02:35:37.046Z,11.60
2022-10-23T02:38:40.692Z,12.95
2022-10-23T02:41:23.510Z,12.57
2022-10-23T02:43:56.848Z,13.05
2022-10-23T02:46:50.104Z,11.82
2022-10-23T02:49:44.660Z,12.40
2022-10-23T02:52:39.882Z,12.27
2022-10-23T02:55:25.213Z,13.48
2022-10-23T02:58:04.318Z,13.15
2022-10-23T03:00:35.939Z,13.17
2022-10-23T03:03:10.125Z,12.75
2022-10-23T03:05:40.923Z,12.93
2022-10-23T03:08:13.627Z,13.50
2022-10-23T03:10:42.696Z,13.10
2022-10-23T03:13:12.834Z,12.80
2022-10-23T03:15:44.485Z,13.23
2022-10-23T03:18:13.981Z,13.15
2022-10-23T03:20:45.723Z,13.82
2022-10-23T03:23:14.633Z,12.68
2022-10-23T03:25:42.913Z,13.68
2022-10-23T03:28:11.071Z,13.75
2022-10-23T03:30:38.310Z,13.10
2022-10-23T03:33:05.291Z,14.07
2022-10-23T03:35:35.590Z,13.40
2022-10-23T03:38:02.678Z,14.77
2022-10-23T03:40:29.656Z,13.75
2022-10-23T03:42:56.622Z,13.88
2022-10-23T03:45:23.631Z,14.05
2022-10-23T03:47:51.871Z,14.60
2022-10-23T03:50:19.973Z,14.35
2022-10-23T03:52:47.594Z,14.48
2022-10-23T03:55:14.670Z,15.75
2022-10-23T03:57:41.622Z,15.93
2022-10-23T04:00:09.496Z,15.25
2022-10-23T04:02:47.782Z,16.13
2022-10-23T04:05:15.386Z,16.10
2022-10-23T04:07:51.695Z,16.42
2022-10-23T04:10:18.881Z,14.88
2022-10-23T04:12:46.002Z,15.80
2022-10-23T04:15:13.175Z,15.90
2022-10-23T04:17:42.909Z,16.30
2022-10-23T04:20:10.314Z,16.67
2022-10-23T04:22:37.266Z,16.80
2022-10-23T04:25:04.667Z,16.88
2022-10-23T04:27:34.605Z,15.95
2022-10-23T04:30:03.735Z,17.15
2022-10-23T04:32:31.683Z,16.87
2022-10-23T04:34:58.647Z,17.30
2022-10-23T04:37:25.806Z,17.83
2022-10-23T04:39:52.769Z,16.77
2022-10-23T04:42:19.871Z,18.33
2022-10-23T04:44:47.718Z,18.27
2022-10-23T04:47:14.663Z,16.98
2022-10-23T04:49:54.605Z,18.43
2022-10-23T04:52:35.547Z,17.58
2022-10-23T04:55:15.619Z,18.55
2022-10-23T04:57:50.130Z,17.50
2022-10-23T05:00:21.371Z,17.83
2022-10-23T05:02:51.792Z,18.25
2022-10-23T05:05:20.263Z,17.42
2022-10-23T05:07:59.994Z,18.35
2022-10-23T05:10:42.912Z,18.13
2022-10-23T05:13:12.527Z,17.80
2022-10-23T05:15:40.663Z,17.42
2022-10-23T05:18:15.592Z,17.85
2022-10-23T05:20:46.478Z,17.90
2022-10-23T05:23:16.833Z,16.75
2022-10-23T05:25:52.826Z,18.40
2022-10-23T05:28:19.890Z,18.15
2022-10-23T05:30:47.245Z,17.10
2022-10-23T05:33:16.602Z,18.50
2022-10-23T05:35:45.227Z,16.92
2022-10-23T05:38:14.873Z,18.45
2022-10-23T05:40:42.866Z,17.52
2022-10-23T05:43:15.183Z,18.23
2022-10-23T05:46:06.242Z,16.63
2022-10-23T05:48:46.308Z,16.98
2022-10-23T05:51:25.466Z,17.55
2022-10-23T05:54:00.202Z,17.15
2022-10-23T05:56:32.314Z,17.65
2022-10-23T05:59:08.330Z,17.23
2022-10-23T06:01:48.550Z,16.95
2022-10-23T06:04:21.021Z,16.65
2022-10-23T06:07:17.557Z,16.77
2022-10-23T06:09:46.285Z,17.48
2022-10-23T06:12:13.456Z,17.23
2022-10-23T06:14:43.382Z,15.63
2022-10-23T06:17:10.371Z,16.95
2022-10-23T06:19:43.678Z,18.63
2022-10-23T06:22:10.800Z,16.30
2022-10-23T06:24:48.137Z,16.65
2022-10-23T06:27:20.396Z,15.55
2022-10-23T06:29:47.458Z,17.05
2022-10-23T06:32:14.546Z,17.00
2022-10-23T06:34:47.330Z,16.60
2022-10-23T06:37:14.349Z,18.05
2022-10-23T06:39:45.421Z,16.65
2022-10-23T06:42:15.155Z,16.13
2022-10-23T06:45:08.204Z,16.65
2022-10-23T06:47:55.110Z,16.80
2022-10-23T06:50:53.412Z,17.75
2022-10-23T06:53:28.004Z,17.55
2022-10-23T06:56:07.081Z,17.38
2022-10-23T06:58:37.818Z,17.20
2022-10-23T07:01:13.837Z,17.67
2022-10-23T07:03:42.846Z,16.55
2022-10-23T07:06:11.013Z,17.17
2022-10-23T07:08:38.984Z,17.25
2022-10-23T07:11:21.975Z,17.65
2022-10-23T07:13:49.425Z,17.42
2022-10-23T07:16:23.416Z,16.73
2022-10-23T07:18:59.744Z,17.17
2022-10-23T07:21:36.205Z,17.48
2022-10-23T07:24:22.315Z,16.98
2022-10-23T07:29:17.997Z,16.77
2022-10-23T07:31:45.050Z,16.63
2022-10-23T07:34:32.171Z,17.65
2022-10-23T07:37:22.274Z,17.70
2022-10-23T07:39:49.230Z,16.42
2022-10-23T07:42:16.258Z,17.42
2022-10-23T07:44:43.237Z,17.40
2022-10-23T07:47:10.363Z,18.00
2022-10-23T07:49:40.272Z,17.83
2022-10-23T07:52:07.725Z,17.98
2022-10-23T07:54:54.765Z,18.08
2022-10-23T07:57:22.289Z,18.42
2022-10-23T07:59:55.386Z,18.98
2022-10-23T08:02:24.133Z,18.58
2022-10-23T08:04:52.422Z,18.75
2022-10-23T08:07:25.858Z,17.63
2022-10-23T08:09:55.971Z,19.63
2022-10-23T08:12:22.943Z,18.65
2022-10-23T08:14:50.071Z,19.30
2022-10-23T08:17:17.351Z,19.25
2022-10-23T08:20:02.601Z,18.92
2022-10-23T08:22:37.074Z,20.35
2022-10-23T08:25:04.760Z,18.27
2022-10-23T08:27:32.086Z,20.45
2022-10-23T08:29:59.109Z,20.33
2022-10-23T08:32:30.796Z,20.48
2022-10-23T08:35:03.056Z,21.65
2022-10-23T08:37:32.524Z,20.27
2022-10-23T08:39:59.596Z,20.88
2022-10-23T08:43:05.907Z,21.40
2022-10-23T08:45:38.420Z,21.27
2022-10-23T08:48:30.664Z,20.73
2022-10-23T08:51:42.643Z,20.88
2022-10-23T08:54:25.271Z,20.67
2022-10-23T08:57:00.497Z,21.15
2022-10-23T08:59:34.461Z,22.10
2022-10-23T09:02:04.724Z,22.65
2022-10-23T09:04:32.069Z,21.98
2022-10-23T09:07:20.196Z,21.67
2022-10-23T09:10:14.532Z,24.38
2022-10-23T09:12:42.510Z,23.55
2022-10-23T09:15:31.649Z,24.45
2022-10-23T09:18:04.831Z,25.65
2022-10-23T09:20:36.497Z,25.48
2022-10-23T09:23:19.593Z,25.67
2022-10-23T09:25:48.158Z,25.75
2022-10-23T09:28:27.742Z,25.23
2022-10-23T09:31:05.711Z,25.38
2022-10-23T09:33:34.797Z,25.55
2022-10-23T09:36:13.823Z,26.42
2022-10-23T09:38:46.785Z,27.02
2022-10-23T09:41:19.529Z,25.05
2022-10-23T09:43:47.033Z,26.08
2022-10-23T09:46:19.582Z,25.67
2022-10-23T09:48:58.257Z,26.48
2022-10-23T09:51:26.068Z,28.08
2022-10-23T09:53:58.419Z,25.63
2022-10-23T09:59:25.575Z,26.45
2022-10-23T10:01:57.196Z,25.58
2022-10-23T10:04:43.023Z,26.88
2022-10-23T10:07:21.109Z,27.65
2022-10-23T10:09:48.725Z,26.65
2022-10-23T10:12:25.912Z,26.73
2022-10-23T10:14:55.895Z,28.25
2022-10-23T10:17:50.530Z,28.65
2022-10-23T10:20:29.382Z,27.27
2022-10-23T10:23:19.452Z,27.45
2022-10-23T10:26:15.799Z,29.00
2022-10-23T10:29:05.317Z,29.45
2022-10-23T10:31:57.030Z,28.40
2022-10-23T10:34:33.131Z,29.75
2022-10-23T10:37:54.541Z,28.60
2022-10-23T10:40:33.028Z,28.17
2022-10-23T10:43:16.334Z,27.85
2022-10-23T10:46:10.488Z,28.15
2022-10-23T10:49:01.910Z,28.60
2022-10-23T10:52:10.984Z,30.00
2022-10-23T10:54:51.503Z,28.33
2022-10-23T10:57:41.419Z,29.77
2022-10-23T11:00:23.352Z,30.63
2022-10-23T11:03:00.407Z,29.35
2022-10-23T11:05:38.385Z,30.00
2022-10-23T11:08:28.026Z,28.33
2022-10-23T11:11:03.257Z,27.85
2022-10-23T11:13:40.374Z,29.45
2022-10-23T11:16:21.668Z,28.15
2022-10-23T11:19:15.338Z,29.05
2022-10-23T11:21:53.063Z,28.60
2022-10-23T11:24:22.607Z,28.20
2022-10-23T11:27:10.478Z,27.15
2022-10-23T11:30:03.991Z,28.05
2022-10-23T11:32:59.514Z,29.05
2022-10-23T11:36:03.696Z,28.30
2022-10-23T11:38:35.060Z,29.00
2022-10-23T11:41:05.778Z,28.83
2022-10-23T11:46:29.892Z,27.88
2022-10-23T11:48:58.290Z,29.13
2022-10-23T11:51:45.629Z,28.30
2022-10-23T11:54:13.694Z,28.77
2022-10-23T11:57:09.144Z,28.77
2022-10-23T11:59:49.319Z,27.60
2022-10-23T12:02:25.662Z,28.25
2022-10-23T12:04:54.395Z,30.13
2022-10-23T12:07:29.147Z,28.58
2022-10-23T12:09:59.659Z,29.00
2022-10-23T12:12:31.320Z,29.83
2022-10-23T12:15:19.340Z,28.40
2022-10-23T12:17:48.884Z,28.08
2022-10-23T12:21:01.274Z,27.45
2022-10-23T12:23:48.390Z,27.73
2022-10-23T12:26:39.954Z,29.63
2022-10-23T12:29:12.466Z,27.95
2022-10-23T12:32:05.902Z,26.98
2022-10-23T12:35:09.569Z,26.42
2022-10-23T12:38:07.060Z,26.45
2022-10-23T12:40:34.238Z,26.55
2022-10-23T12:43:01.427Z,27.40
2022-10-23T12:45:32.783Z,27.70
2022-10-23T12:48:01.495Z,26.63
2022-10-23T12:50:31.457Z,25.80
2022-10-23T12:53:02.052Z,26.97
2022-10-23T12:58:35.243Z,27.00
2022-10-23T13:01:06.950Z,27.02
2022-10-23T13:03:35.617Z,26.45
2022-10-23T13:06:03.363Z,26.95
2022-10-23T13:08:49.179Z,25.90
2022-10-23T13:11:31.076Z,26.48
2022-10-23T13:14:01.851Z,25.13
2022-10-23T13:16:28.880Z,24.48
2022-10-23T13:18:55.800Z,24.50
2022-10-23T13:21:25.481Z,25.25
2022-10-23T13:23:53.487Z,26.02
2022-10-23T13:26:45.277Z,25.75
2022-10-23T13:29:31.244Z,25.60
2022-10-23T13:31:58.431Z,24.50
2022-10-23T13:34:30.112Z,25.55
2022-10-23T13:37:21.171Z,26.20
2022-10-23T13:40:03.402Z,25.65
2022-10-23T13:42:31.567Z,26.70
2022-10-23T13:44:58.552Z,27.15
2022-10-23T13:47:25.625Z,25.98
2022-10-23T13:49:52.618Z,27.88
2022-10-23T13:52:23.905Z,26.95
2022-10-23T13:54:51.138Z,27.80
2022-10-23T13:57:18.080Z,26.83
2022-10-23T13:59:45.743Z,28.20
2022-10-23T14:02:19.699Z,27.08
2022-10-23T14:04:47.416Z,26.60
2022-10-23T14:07:14.663Z,27.48
2022-10-23T14:09:41.684Z,27.33
2022-10-23T14:12:08.668Z,27.88
2022-10-23T14:14:35.704Z,29.65
2022-10-23T14:17:02.673Z,28.45
2022-10-23T14:19:29.711Z,27.98
2022-10-23T14:21:56.781Z,27.27
2022-10-23T14:24:23.893Z,28.30
2022-10-23T14:26:50.912Z,28.23
2022-10-23T14:29:23.920Z,27.88
2022-10-23T14:31:52.012Z,28.08
2022-10-23T14:34:19.003Z,28.20
2022-10-23T14:36:50.657Z,28.52
2022-10-23T14:39:18.458Z,27.70
2022-10-23T14:41:45.662Z,28.00
2022-10-23T14:44:12.723Z,28.73
2022-10-23T14:46:39.738Z,27.30
2022-10-23T14:49:07.205Z,30.15
2022-10-23T14:51:34.197Z,29.38
2022-10-23T14:54:04.327Z,29.05
2022-10-23T14:56:34.295Z,29.33
2022-10-23T14:59:04.706Z,26.23
2022-10-23T15:01:43.754Z,27.95
2022-10-23T15:04:14.753Z,28.40
2022-10-23T15:06:42.539Z,28.13
2022-10-23T15:09:09.554Z,28.38
2022-10-23T15:11:36.582Z,27.25
2022-10-23T15:14:03.706Z,29.08
2022-10-23T15:16:32.531Z,28.63
2022-10-23T15:18:59.648Z,26.02
2022-10-23T15:21:26.597Z,27.23
2022-10-23T15:23:54.929Z,28.75
2022-10-23T15:26:23.270Z,28.10
2022-10-23T15:28:59.271Z,27.55
2022-10-23T15:31:29.161Z,27.30
2022-10-23T15:33:59.623Z,26.20
2022-10-23T15:36:27.361Z,25.70
2022-10-23T15:38:54.347Z,25.55
2022-10-23T15:41:33.438Z,27.33
2022-10-23T15:44:02.131Z,27.05
2022-10-23T15:46:29.712Z,26.95
2022-10-23T15:48:56.722Z,27.45
2022-10-23T15:51:23.664Z,26.70
2022-10-23T15:53:50.724Z,26.67
2022-10-23T15:56:17.770Z,27.00
2022-10-23T15:58:46.409Z,25.25
2022-10-23T16:01:13.566Z,26.23
2022-10-23T16:03:40.641Z,24.27
2022-10-23T16:06:10.358Z,24.45
2022-10-23T16:08:37.930Z,24.02
2022-10-23T16:11:12.174Z,22.98
2022-10-23T16:13:39.161Z,24.63
2022-10-23T16:16:07.251Z,24.02
2022-10-23T16:18:34.270Z,23.52
2022-10-23T16:21:01.216Z,23.17
2022-10-23T16:23:28.498Z,23.95
2022-10-23T16:25:55.669Z,23.52
2022-10-23T16:28:24.150Z,23.85
2022-10-23T16:30:51.259Z,23.77
2022-10-23T16:33:18.248Z,22.58
2022-10-23T16:35:45.189Z,22.83
2022-10-23T16:38:17.553Z,24.05
2022-10-23T16:40:51.885Z,23.50
2022-10-23T16:43:48.035Z,23.25
2022-10-23T16:46:35.569Z,23.13
2022-10-23T16:49:03.455Z,22.67
2022-10-23T16:51:31.817Z,24.02
2022-10-23T16:53:59.041Z,21.95
2022-10-23T16:56:30.524Z,21.63
2022-10-23T17:01:33.160Z,21.70
2022-10-23T17:04:00.404Z,20.88
2022-10-23T17:06:30.419Z,21.23
2022-10-23T17:08:58.796Z,20.95
2022-10-23T17:11:31.158Z,22.52
2022-10-23T17:14:15.800Z,20.90
2022-10-23T17:16:46.222Z,19.83
2022-10-23T17:19:32.771Z,19.00
2022-10-23T17:22:01.793Z,19.40
2022-10-23T17:24:28.940Z,19.00
2022-10-23T17:26:56.341Z,18.15
2022-10-23T17:29:23.412Z,17.65
2022-10-23T17:31:51.190Z,16.52
2022-10-23T17:34:22.711Z,18.67
2022-10-23T17:36:54.111Z,17.70
2022-10-23T17:39:25.391Z,18.40
2022-10-23T17:41:53.595Z,17.65
2022-10-23T17:44:20.825Z,17.42
2022-10-23T17:46:54.545Z,17.98
2022-10-23T17:49:22.426Z,17.92
2022-10-23T17:51:57.606Z,17.17
2022-10-23T17:54:26.539Z,16.52
2022-10-23T17:56:54.146Z,16.95
2022-10-23T17:59:21.294Z,16.98
2022-10-23T18:01:49.228Z,15.73
2022-10-23T18:04:18.739Z,16.70
2022-10-23T18:06:53.115Z,16.42
2022-10-23T18:09:22.103Z,16.92
2022-10-23T18:11:49.446Z,17.80
2022-10-23T18:14:18.394Z,15.80
2022-10-23T18:16:46.358Z,16.40
2022-10-23T18:19:14.933Z,15.82
2022-10-23T18:21:42.210Z,16.38
2022-10-23T18:24:10.986Z,16.20
2022-10-23T18:26:41.402Z,16.48
2022-10-23T18:29:09.915Z,15.55
2022-10-23T18:31:37.860Z,16.20
2022-10-23T18:34:07.908Z,16.05
2022-10-23T18:36:38.347Z,15.82
2022-10-23T18:39:07.191Z,15.50
2022-10-23T18:41:37.236Z,16.13
2022-10-23T18:44:04.868Z,16.25
2022-10-23T18:46:32.243Z,15.63
2022-10-23T18:48:59.759Z,17.15
2022-10-23T18:51:32.651Z,14.93
2022-10-23T18:54:06.202Z,15.32
2022-10-23T18:56:35.930Z,15.32
2022-10-23T18:59:05.321Z,15.43
2022-10-23T19:01:33.681Z,15.10
2022-10-23T19:04:01.692Z,14.65
2022-10-23T19:06:29.886Z,15.23
2022-10-23T19:08:57.402Z,14.68
2022-10-23T19:11:26.781Z,14.50
2022-10-23T19:13:54.574Z,14.00
2022-10-23T19:16:31.420Z,13.30
2022-10-23T19:19:11.646Z,13.85
2022-10-23T19:21:40.481Z,14.75
2022-10-23T19:24:20.140Z,16.33
2022-10-23T19:26:47.976Z,15.02
2022-10-23T19:29:20.808Z,13.20
2022-10-23T19:31:49.992Z,14.68
2022-10-23T19:34:22.834Z,13.60
2022-10-23T19:36:50.724Z,13.57
2022-10-23T19:39:18.821Z,12.40
2022-10-23T19:41:45.942Z,13.23
2022-10-23T19:44:14.777Z,12.95
2022-10-23T19:46:42.151Z,12.25
2022-10-23T19:49:10.494Z,13.43
2022-10-23T19:51:38.421Z,13.30
2022-10-23T19:54:06.078Z,12.50
2022-10-23T19:56:33.121Z,13.32
2022-10-23T19:59:00.305Z,12.95
2022-10-23T20:01:27.444Z,14.55
2022-10-23T20:03:55.648Z,11.70
2022-10-23T20:06:25.840Z,11.25
2022-10-23T20:08:53.403Z,12.30
2022-10-23T20:11:28.176Z,12.95
2022-10-23T20:13:55.952Z,12.50
2022-10-23T20:16:31.943Z,14.00
2022-10-23T20:19:01.724Z,13.43
2022-10-23T20:21:28.794Z,12.70
2022-10-23T20:23:57.856Z,12.95
2022-10-23T20:26:25.285Z,13.27
2022-10-23T20:28:54.784Z,13.48
2022-10-23T20:31:24.106Z,13.38
2022-10-23T20:33:51.977Z,13.07
2022-10-23T20:36:31.800Z,14.57
2022-10-23T20:39:02.618Z,14.80
2022-10-23T20:41:33.172Z,14.30
2022-10-23T20:44:00.848Z,14.55
2022-10-23T20:46:28.142Z,14.25
2022-10-23T20:48:55.185Z,13.77
2022-10-23T20:51:24.247Z,13.90
2022-10-23T20:53:53.204Z,15.48
2022-10-23T20:56:32.516Z,15.15
2022-10-23T20:59:07.813Z,14.38
2022-10-23T21:01:35.497Z,14.38
2022-10-23T21:04:03.776Z,15.27
2022-10-23T21:06:45.618Z,15.15
2022-10-23T21:09:21.215Z,14.93
2022-10-23T21:11:48.373Z,14.27
2022-10-23T21:14:15.560Z,14.95
2022-10-23T21:16:46.522Z,14.80
2022-10-23T21:19:15.955Z,15.48
2022-10-23T21:21:43.779Z,14.60
2022-10-23T21:24:14.856Z,16.00
2022-10-23T21:26:42.619Z,14.70
2022-10-23T21:29:18.402Z,14.73
2022-10-23T21:31:45.976Z,14.15
2022-10-23T21:34:13.008Z,14.43
2022-10-23T21:36:54.060Z,14.65
2022-10-23T21:39:28.710Z,14.50
2022-10-23T21:41:55.722Z,15.25
2022-10-23T21:44:22.777Z,15.20
2022-10-23T21:46:49.803Z,15.35
2022-10-23T21:49:16.902Z,15.85
2022-10-23T21:51:44.175Z,15.23
2022-10-23T21:54:14.856Z,16.45
2022-10-23T21:59:19.733Z,15.95
2022-10-23T22:01:48.536Z,15.60
2022-10-23T22:04:18.213Z,16.13
2022-10-23T22:06:47.687Z,16.70
2022-10-23T22:09:19.031Z,15.43
2022-10-23T22:11:46.378Z,14.93
2022-10-23T22:14:13.563Z,16.40
2022-10-23T22:16:42.285Z,16.15
2022-10-23T22:19:12.496Z,16.98
2022-10-23T22:21:40.429Z,16.42
2022-10-23T22:24:08.384Z,17.40
2022-10-23T22:26:39.022Z,17.02
2022-10-23T22:29:18.249Z,17.55
2022-10-23T22:31:48.858Z,16.35
2022-10-23T22:34:28.700Z,16.92
2022-10-23T22:37:09.125Z,17.08
2022-10-23T22:39:36.396Z,15.88
2022-10-23T22:42:03.495Z,15.55
2022-10-23T22:44:30.722Z,16.20
2022-10-23T22:46:57.828Z,14.98
2022-10-23T22:49:24.913Z,15.35
2022-10-23T22:51:51.909Z,14.52
2022-10-23T22:54:19.020Z,14.77
2022-10-23T22:56:46.022Z,14.88
2022-10-23T22:59:13.017Z,15.48
2022-10-23T23:01:44.058Z,13.88
2022-10-23T23:04:38.354Z,14.15
2022-10-23T23:07:10.395Z,13.68
2022-10-23T23:09:40.429Z,14.68
2022-10-23T23:12:09.902Z,14.77
2022-10-23T23:14:37.459Z,13.77
2022-10-23T23:17:04.962Z,14.80
2022-10-23T23:19:32.030Z,14.68
2022-10-23T23:21:59.477Z,13.25
2022-10-23T23:24:27.081Z,13.40
2022-10-23T23:26:54.162Z,13.73
2022-10-23T23:29:21.830Z,14.75
2022-10-23T23:31:48.983Z,14.50
2022-10-23T23:34:16.117Z,15.25
2022-10-23T23:36:43.108Z,13.73
2022-10-23T23:39:10.650Z,13.82
2022-10-23T23:41:38.026Z,13.82
2022-10-23T23:44:05.317Z,14.15
2022-10-23T23:46:32.367Z,12.80
2022-10-23T23:48:59.453Z,13.70
2022-10-23T23:51:26.937Z,14.07
2022-10-23T23:53:54.029Z,13.35
2022-10-23T23:56:21.881Z,14.48
2022-10-23T23:58:48.947Z,13.77
